Time;durP1;ratioP1;P1;durP2;ratioP2;P2;SDS_P1;SDS_P2;PMS_P1;PMS_P2;Temp;Humidity;BMP_temperature;BMP_pressure;BME280_temperature;BME280_humidity;BME280_pressure;Samples;Min_cycle;Max_cycle;Signal;HPM_P1;HPM_P2
2022/10/03 00:01:51;;;;;;;;;;;;;;;;;;5031891;28;19913;-55
2022/10/03 00:04:16;;;;;;;;;;;10.80;99.90;;;;;;5037164;28;20007;-55
2022/10/03 00:06:55;;;;;;;;;;;11.00;99.90;;;;;;5033186;28;19909;-55
2022/10/03 00:09:23;;;;;;;;;;;;;;;;;;5037374;28;19928;-54
2022/10/03 00:11:49;;;;;;;;;;;;;;;;;;5034181;28;19913;-55
2022/10/03 00:14:15;;;;;;;;;;;;;;;;;;5028253;28;19913;-54
2022/10/03 00:16:41;;;;;;;;;;;;;;;;;;5036770;28;19917;-55
2022/10/03 00:19:07;;;;;;;;;;;;;;;;;;5039599;28;20399;-55
2022/10/03 00:21:33;;;;;;;;;;;;;;;;;;5041470;28;20013;-54
2022/10/03 00:23:58;;;;;;;;;;;;;;;;;;5038673;28;19913;-57
2022/10/03 00:26:29;;;;;;;;;;;;;;;;;;5031372;28;19913;-54
2022/10/03 00:28:55;;;;;;;;;;;;;;;;;;5034719;28;19924;-54
2022/10/03 00:31:21;;;;;;;;;;;;;;;;;;5032924;28;19917;-54
2022/10/03 00:33:47;;;;;;;;;;;;;;;;;;5035113;28;19991;-55
2022/10/03 00:36:12;;;;;;;;;;;;;;;;;;5033735;28;19909;-55
2022/10/03 00:38:38;;;;;;;;;;;;;;;;;;5035855;28;19920;-54
2022/10/03 00:41:08;;;;;;;;;;;10.90;99.90;;;;;;5036746;28;19986;-54
2022/10/03 00:43:34;;;;;;;;;;;;;;;;;;5032827;28;20401;-54
2022/10/03 00:46:00;;;;;;;;;;;;;;;;;;5031018;28;19916;-54
2022/10/03 00:48:26;;;;;;;;;;;;;;;;;;5033528;28;19908;-55
2022/10/03 00:50:58;;;;;;;;;;;10.80;99.90;;;;;;5030506;28;20368;-54
2022/10/03 00:53:24;;;;;;;;;;;;;;;;;;5030636;28;19916;-54
2022/10/03 00:55:50;;;;;;;;;;;;;;;;;;5029892;28;19936;-54
2022/10/03 00:58:16;;;;;;;;;;;;;;;;;;5027262;28;20266;-54
2022/10/03 01:00:48;;;;;;;;;;;10.90;99.90;;;;;;5029944;28;19913;-54
2022/10/03 01:03:14;;;;;;;;;;;;;;;;;;5024529;28;19913;-54
2022/10/03 01:05:39;;;;;;;;;;;;;;;;;;5024768;28;19913;-54
2022/10/03 01:08:05;;;;;;;;;;;;;;;;;;5027709;28;19984;-54
2022/10/03 01:10:31;;;;;;;;;;;;;;;;;;5029985;28;19917;-55
2022/10/03 01:12:57;;;;;;;;;;;;;;;;;;5028424;28;19924;-55
2022/10/03 01:15:23;;;;;;;;;;;11.30;99.90;;;;;;5025049;28;21141;-55
2022/10/03 01:17:49;;;;;;;;;;;;;;;;;;5032615;28;19921;-54
2022/10/03 01:20:14;;;;;;;;;;;;;;;;;;5033184;28;19913;-54
2022/10/03 01:22:40;;;;;;;;;;;;;;;;;;5031066;28;19932;-54
2022/10/03 01:25:06;;;;;;;;;;;;;;;;;;5015929;28;19921;-54
2022/10/03 01:27:32;;;;;;;;;;;;;;;;;;5018168;28;20240;-54
2022/10/03 01:32:42;;;;;;;;;;;;;;;;;;5019436;28;20379;-54
2022/10/03 01:35:09;;;;;;;;;;;;;;;;;;5021463;28;19913;-54
2022/10/03 01:37:34;;;;;;;;;;;;;;;;;;5016106;28;19917;-54
2022/10/03 01:40:00;;;;;;;;;;;;;;;;;;5019308;28;19917;-54
2022/10/03 01:42:36;;;;;;;;;;;11.00;99.90;;;;;;5023663;28;20129;-55
2022/10/03 01:45:02;;;;;;;;;;;;;;;;;;5021020;28;19921;-54
2022/10/03 01:47:27;;;;;;;;;;;11.20;99.90;;;;;;5021867;28;19913;-54
2022/10/03 01:49:53;;;;;;;;;;;;;;;;;;5019457;28;19976;-54
2022/10/03 01:52:19;;;;;;;;;;;;;;;;;;5018659;28;19959;-54
2022/10/03 01:54:45;;;;;;;;;;;;;;;;;;5017054;28;20468;-54
2022/10/03 01:57:11;;;;;;;;;;;;;;;;;;5026410;28;20338;-54
2022/10/03 01:59:37;;;;;;;;;;;;;;;;;;5024648;28;19921;-54
2022/10/03 02:02:03;;;;;;;;;;;;;;;;;;5024919;28;20059;-54
2022/10/03 02:04:29;;;;;;;;;;;;;;;;;;5029195;28;19996;-55
2022/10/03 02:06:55;;;;;;;;;;;;;;;;;;5028429;28;19963;-54
2022/10/03 02:09:21;;;;;;;;;;;;;;;;;;5030907;28;19920;-55
2022/10/03 02:11:50;;;;;;;;;;;11.30;99.90;;;;;;5033160;28;19913;-54
2022/10/03 02:14:15;;;;;;;;;;;;;;;;;;5025416;28;19931;-54
2022/10/03 02:16:42;;;;;;;;;;;;;;;;;;5018744;28;19921;-54
2022/10/03 02:19:08;;;;;;;;;;;;;;;;;;5024097;28;20521;-54
2022/10/03 02:21:34;;;;;;;;;;;;;;;;;;5025311;28;19908;-54
2022/10/03 02:24:00;;;;;;;;;;;;;;;;;;5033105;28;20377;-54
2022/10/03 02:26:26;;;;;;;;;;;;;;;;;;5027349;28;19967;-54
2022/10/03 02:28:54;;;;;;;;;;;;;;;;;;5024750;28;19932;-54
2022/10/03 02:31:19;;;;;;;;;;;;;;;;;;5025692;28;20018;-55
2022/10/03 02:33:45;;;;;;;;;;;;;;;;;;5024834;28;20378;-55
2022/10/03 02:36:11;;;;;;;;;;;;;;;;;;5020699;28;20389;-54
2022/10/03 02:38:40;;;;;;;;;;;11.50;99.90;;;;;;5022828;28;20173;-54
2022/10/03 02:41:06;;;;;;;;;;;;;;;;;;5023858;28;20382;-54
2022/10/03 02:43:31;;;;;;;;;;;;;;;;;;5034433;28;19939;-54
2022/10/03 02:46:19;;;;;;;;;;;11.60;99.90;;;;;;5032696;28;19919;-54
2022/10/03 02:48:45;;;;;;;;;;;;;;;;;;5028610;28;19917;-54
2022/10/03 02:51:11;;;;;;;;;;;;;;;;;;5028871;28;20011;-54
2022/10/03 02:53:37;;;;;;;;;;;;;;;;;;5027978;28;20517;-54
2022/10/03 02:56:03;;;;;;;;;;;;;;;;;;5025995;28;19917;-55
2022/10/03 02:58:29;;;;;;;;;;;;;;;;;;5023175;28;20992;-54
2022/10/03 03:00:55;;;;;;;;;;;;;;;;;;5022098;28;20835;-54
2022/10/03 03:03:21;;;;;;;;;;;;;;;;;;5020549;28;20002;-55
2022/10/03 03:06:03;;;;;;;;;;;11.60;99.90;;;;;;5020341;28;19912;-55
2022/10/03 03:08:53;;;;;;;;;;;11.70;99.90;;;;;;5026542;28;20171;-55
2022/10/03 03:11:19;;;;;;;;;;;;;;;;;;5027561;28;19913;-55
2022/10/03 03:13:46;;;;;;;;;;;;;;;;;;5019874;28;19913;-54
2022/10/03 03:16:12;;;;;;;;;;;;;;;;;;5022074;28;19973;-54
2022/10/03 03:19:03;;;;;;;;;;;11.70;99.90;;;;;;5030420;28;20599;-54
2022/10/03 03:21:42;;;;;;;;;;;11.70;99.90;;;;;;5025754;28;20083;-54
2022/10/03 03:24:08;;;;;;;;;;;;;;;;;;5032305;28;20007;-54
2022/10/03 03:26:34;;;;;;;;;;;;;;;;;;5028706;28;20028;-54
2022/10/03 03:29:18;;;;;;;;;;;11.70;99.90;;;;;;5032822;28;20331;-54
2022/10/03 03:32:03;;;;;;;;;;;11.70;99.90;;;;;;5029151;28;19917;-54
2022/10/03 03:34:29;;;;;;;;;;;;;;;;;;5024202;28;20055;-54
2022/10/03 03:36:59;;;;;;;;;;;11.60;99.90;;;;;;5022487;28;19939;-54
2022/10/03 03:39:25;;;;;;;;;;;;;;;;;;5039082;28;20062;-54
2022/10/03 03:41:51;;;;;;;;;;;;;;;;;;5032574;28;20467;-53
2022/10/03 03:44:17;;;;;;;;;;;;;;;;;;5025667;28;19944;-54
2022/10/03 03:46:51;;;;;;;;;;;11.70;99.90;;;;;;5030921;28;19913;-54
2022/10/03 03:49:17;;;;;;;;;;;;;;;;;;5040705;28;20400;-54
2022/10/03 03:51:49;;;;;;;;;;;11.50;99.90;;;;;;5036387;28;19909;-54
2022/10/03 03:54:18;;;;;;;;;;;;;;;;;;5029117;28;19909;-54
2022/10/03 03:56:43;;;;;;;;;;;11.80;99.90;;;;;;5025737;28;19912;-54
2022/10/03 03:59:11;;;;;;;;;;;;;;;;;;5022926;28;20281;-54
2022/10/03 04:01:37;;;;;;;;;;;;;;;;;;5024566;28;19959;-54
2022/10/03 04:04:03;;;;;;;;;;;;;;;;;;5028575;28;19944;-54
2022/10/03 04:06:33;;;;;;;;;;;;;;;;;;5019088;28;19913;-54
2022/10/03 04:09:00;;;;;;;;;;;;;;;;;;5035422;28;19925;-53
2022/10/03 04:11:26;;;;;;;;;;;;;;;;;;5028285;28;19912;-54
2022/10/03 04:13:52;;;;;;;;;;;;;;;;;;5030374;28;20292;-53
2022/10/03 04:18:56;;;;;;;;;;;;;;;;;;5025374;28;19917;-54
2022/10/03 04:19:03;;;;;;;;;;;;;;;;;;5030356;28;19917;-54
2022/10/03 04:21:29;;;;;;;;;;;;;;;;;;5028153;28;19916;-54
2022/10/03 04:24:13;;;;;;;;;;;11.70;99.90;;;;;;5034652;28;19927;-54
2022/10/03 04:26:39;;;;;;;;;;;;;;;;;;5025640;28;19936;-54
2022/10/03 04:29:05;;;;;;;;;;;;;;;;;;5031490;28;19916;-54
2022/10/03 04:31:30;;;;;;;;;;;;;;;;;;5020782;28;20418;-54
2022/10/03 04:33:56;;;;;;;;;;;;;;;;;;5028744;28;19916;-54
2022/10/03 04:36:22;;;;;;;;;;;;;;;;;;5032890;28;19995;-54
2022/10/03 04:39:05;;;;;;;;;;;11.80;99.90;;;;;;5029384;28;19978;-54
2022/10/03 04:41:31;;;;;;;;;;;;;;;;;;5037870;28;19945;-54
2022/10/03 04:43:59;;;;;;;;;;;;;;;;;;5035447;28;20186;-54
2022/10/03 04:46:25;;;;;;;;;;;;;;;;;;5027988;28;19920;-53
2022/10/03 04:48:50;;;;;;;;;;;;;;;;;;5040477;28;19917;-54
2022/10/03 04:51:16;;;;;;;;;;;;;;;;;;5031745;28;19905;-54
2022/10/03 04:53:44;;;;;;;;;;;;;;;;;;5032172;28;19974;-54
2022/10/03 04:56:11;;;;;;;;;;;;;;;;;;5026808;28;19913;-53
2022/10/03 04:58:37;;;;;;;;;;;;;;;;;;5030014;28;20107;-54
2022/10/03 05:01:05;;;;;;;;;;;;;;;;;;5034225;28;19912;-54
2022/10/03 05:03:31;;;;;;;;;;;;;;;;;;5030340;28;19944;-53
2022/10/03 05:05:59;;;;;;;;;;;11.70;99.90;;;;;;5027823;28;19920;-54
2022/10/03 05:08:25;;;;;;;;;;;;;;;;;;5022130;28;20361;-54
2022/10/03 05:10:56;;;;;;;;;;;11.80;99.90;;;;;;5033247;28;19928;-54
2022/10/03 05:13:24;;;;;;;;;;;;;;;;;;5032632;28;19913;-54
2022/10/03 05:15:50;;;;;;;;;;;;;;;;;;5034360;28;19926;-54
2022/10/03 05:18:15;;;;;;;;;;;;;;;;;;5036996;28;19913;-54
2022/10/03 05:20:42;;;;;;;;;;;;;;;;;;5033218;28;20381;-54
2022/10/03 05:23:07;;;;;;;;;;;;;;;;;;5035523;28;20113;-53
2022/10/03 05:25:34;;;;;;;;;;;;;;;;;;5032000;28;19916;-54
2022/10/03 05:28:00;;;;;;;;;;;;;;;;;;5030571;28;19912;-53
2022/10/03 05:30:26;;;;;;;;;;;;;;;;;;5027227;28;20000;-54
2022/10/03 05:32:52;;;;;;;;;;;;;;;;;;5029791;28;19923;-54
2022/10/03 05:35:17;;;;;;;;;;;;;;;;;;5029932;28;19912;-53
2022/10/03 05:38:01;;;;;;;;;;;11.60;99.90;;;;;;5038718;28;20428;-54
2022/10/03 05:40:27;;;;;;;;;;;;;;;;;;5026886;28;20362;-54
2022/10/03 05:42:54;;;;;;;;;;;;;;;;;;5031458;28;19976;-54
2022/10/03 05:45:22;;;;;;;;;;;;;;;;;;5028040;28;19913;-54
2022/10/03 05:48:09;;;;;;;;;;;11.60;99.90;;;;;;5019875;28;19920;-53
2022/10/03 05:50:35;;;;;;;;;;;;;;;;;;5029675;28;19917;-53
2022/10/03 05:53:10;;;;;;;;;;;11.50;99.90;;;;;;5029386;28;20618;-53
2022/10/03 05:55:35;;;;;;;;;;;;;;;;;;5021523;28;19919;-53
2022/10/03 05:58:01;;;;;;;;;;;;;;;;;;5027494;28;19913;-53
2022/10/03 06:00:27;;;;;;;;;;;;;;;;;;5026611;28;19951;-53
2022/10/03 06:02:53;;;;;;;;;;;;;;;;;;5023791;28;19913;-53
2022/10/03 06:05:19;;;;;;;;;;;;;;;;;;5008078;28;20210;-53
2022/10/03 06:07:45;;;;;;;;;;;;;;;;;;5022111;28;19913;-53
2022/10/03 06:10:10;;;;;;;;;;;;;;;;;;5029697;28;19916;-53
2022/10/03 06:12:36;;;;;;;;;;;;;;;;;;5027506;28;20003;-53
2022/10/03 06:15:02;;;;;;;;;;;;;;;;;;5025804;28;19920;-53
2022/10/03 06:17:28;;;;;;;;;;;;;;;;;;5024453;28;20009;-53
2022/10/03 06:19:54;;;;;;;;;;;;;;;;;;5022882;28;19921;-53
2022/10/03 06:22:20;;;;;;;;;;;;;;;;;;5021491;28;20085;-53
2022/10/03 06:24:58;;;;;;;;;;;11.30;99.90;;;;;;5023852;28;20321;-53
2022/10/03 06:27:38;;;;;;;;;;;11.20;99.90;;;;;;5030204;28;19905;-53
2022/10/03 06:30:04;;;;;;;;;;;;;;;;;;5019564;28;19924;-53
2022/10/03 06:32:30;;;;;;;;;;;;;;;;;;5026484;28;19913;-53
2022/10/03 06:34:56;;;;;;;;;;;;;;;;;;5026138;28;19920;-53
2022/10/03 06:37:37;;;;;;;;;;;11.30;99.90;;;;;;5015164;28;19966;-53
2022/10/03 06:40:03;;;;;;;;;;;;;;;;;;5020622;28;20178;-53
2022/10/03 06:42:28;;;;;;;;;;;;;;;;;;5026451;28;19909;-53
2022/10/03 06:44:55;;;;;;;;;;;;;;;;;;5024599;28;20254;-53
2022/10/03 06:47:26;;;;;;;;;;;11.50;99.90;;;;;;5022643;28;19959;-53
2022/10/03 06:49:52;;;;;;;;;;;;;;;;;;5022910;28;19982;-54
2022/10/03 06:52:18;;;;;;;;;;;;;;;;;;5020340;28;19913;-54
2022/10/03 06:54:44;;;;;;;;;;;;;;;;;;5015923;28;20008;-54
2022/10/03 06:57:09;;;;;;;;;;;;;;;;;;5028594;28;20265;-54
2022/10/03 06:59:35;;;;;;;;;;;;;;;;;;5024881;28;20507;-53
2022/10/03 07:02:01;;;;;;;;;;;;;;;;;;5018102;28;20337;-54
2022/10/03 07:04:27;;;;;;;;;;;;;;;;;;5032469;28;19913;-53
2022/10/03 07:06:53;;;;;;;;;;;;;;;;;;5030870;28;19913;-54
2022/10/03 07:09:19;;;;;;;;;;;;;;;;;;5032744;28;20139;-53
2022/10/03 07:11:45;;;;;;;;;;;;;;;;;;5012733;28;19944;-53
2022/10/03 07:14:13;;;;;;;;;;;;;;;;;;5016413;28;20455;-53
2022/10/03 07:16:40;;;;;;;;;;;;;;;;;;5027265;28;19996;-54
2022/10/03 07:19:06;;;;;;;;;;;;;;;;;;5024011;28;19920;-53
2022/10/03 07:21:31;;;;;;;;;;;;;;;;;;5018585;28;19923;-54
2022/10/03 07:24:01;;;;;;;;;;;;;;;;;;5015990;28;19921;-53
2022/10/03 07:26:27;;;;;;;;;;;;;;;;;;5025330;28;20278;-53
2022/10/03 07:28:53;;;;;;;;;;;;;;;;;;5030600;28;20196;-53
2022/10/03 07:31:19;;;;;;;;;;;;;;;;;;5027267;28;20419;-53
2022/10/03 07:33:45;;;;;;;;;;;;;;;;;;5023644;28;19905;-53
2022/10/03 07:38:59;;;;;;;;;;;;;;;;;;5030165;28;20137;-54
2022/10/03 07:41:25;;;;;;;;;;;;;;;;;;5020654;28;19913;-53
2022/10/03 07:43:52;;;;;;;;;;;;;;;;;;5032136;28;19913;-53
2022/10/03 07:46:20;;;;;;;;;;;12.40;99.90;;;;;;5030764;28;19913;-54
2022/10/03 07:48:46;;;;;;;;;;;;;;;;;;5028176;28;20389;-53
2022/10/03 07:51:13;;;;;;;;;;;;;;;;;;5035213;28;20313;-54
2022/10/03 07:53:38;;;;;;;;;;;;;;;;;;5025793;28;20155;-54
2022/10/03 07:56:06;;;;;;;;;;;;;;;;;;5026221;28;19913;-54
2022/10/03 07:58:33;;;;;;;;;;;;;;;;;;5037147;28;19929;-54
2022/10/03 08:00:59;;;;;;;;;;;;;;;;;;5025761;28;19924;-54
2022/10/03 08:03:25;;;;;;;;;;;;;;;;;;5030729;28;19965;-54
2022/10/03 08:06:07;;;;;;;;;;;12.50;99.90;;;;;;5029067;28;19913;-54
2022/10/03 08:08:52;;;;;;;;;;;12.70;99.90;;;;;;5031862;28;19942;-54
2022/10/03 08:11:18;;;;;;;;;;;;;;;;;;5036725;28;19919;-54
2022/10/03 08:13:48;;;;;;;;;;;;;;;;;;5033465;28;19909;-54
2022/10/03 08:16:14;;;;;;;;;;;;;;;;;;5030125;28;20573;-54
2022/10/03 08:18:41;;;;;;;;;;;;;;;;;;5032486;28;19913;-54
2022/10/03 08:21:06;;;;;;;;;;;;;;;;;;5015602;28;20004;-54
2022/10/03 08:23:32;;;;;;;;;;;;;;;;;;5023669;28;19994;-54
2022/10/03 08:25:58;;;;;;;;;;;;;;;;;;5024630;28;19921;-54
2022/10/03 08:28:24;;;;;;;;;;;;;;;;;;5026578;28;19924;-54
2022/10/03 08:30:51;;;;;;;;;;;;;;;;;;5020041;28;19916;-54
2022/10/03 08:33:17;;;;;;;;;;;;;;;;;;5022105;28;20156;-54
2022/10/03 08:35:43;;;;;;;;;;;;;;;;;;5020374;28;20415;-54
2022/10/03 08:38:09;;;;;;;;;;;;;;;;;;5004596;28;19920;-54
2022/10/03 08:40:35;;;;;;;;;;;;;;;;;;5013249;28;20530;-54
2022/10/03 08:43:01;;;;;;;;;;;;;;;;;;5012580;28;20356;-53
2022/10/03 08:45:29;;;;;;;;;;;13.50;99.90;;;;;;5027133;28;19918;-54
2022/10/03 08:47:55;;;;;;;;;;;;;;;;;;4989695;28;20293;-54
2022/10/03 08:50:21;;;;;;;;;;;;;;;;;;4994593;28;20341;-54
2022/10/03 08:52:47;;;;;;;;;;;;;;;;;;5008635;28;19918;-54
2022/10/03 08:55:22;;;;;;;;;;;13.70;99.90;;;;;;4990100;28;20378;-54
2022/10/03 08:57:47;;;;;;;;;;;;;;;;;;4993666;28;21590;-54
2022/10/03 09:00:13;;;;;;;;;;;;;;;;;;5000670;28;20008;-53
2022/10/03 09:02:51;;;;;;;;;;;13.80;99.90;;;;;;4999426;28;19913;-54
2022/10/03 09:05:17;;;;;;;;;;;;;;;;;;4989593;28;19998;-53
2022/10/03 09:07:43;;;;;;;;;;;;;;;;;;4994255;28;19921;-53
2022/10/03 09:10:09;;;;;;;;;;;;;;;;;;4990533;28;19976;-54
2022/10/03 09:12:35;;;;;;;;;;;;;;;;;;4996635;28;19936;-54
2022/10/03 09:15:01;;;;;;;;;;;;;;;;;;4988314;28;19978;-54
2022/10/03 09:17:27;;;;;;;;;;;;;;;;;;4990764;28;20012;-54
2022/10/03 09:19:53;;;;;;;;;;;;;;;;;;5003356;28;19924;-54
2022/10/03 09:22:19;;;;;;;;;;;;;;;;;;5003105;28;21200;-54
2022/10/03 09:24:51;;;;;;;;;;;13.90;1.00;;;;;;4989674;28;19920;-54
2022/10/03 09:27:30;;;;;;;;;;;13.70;1.00;;;;;;4997599;28;20737;-54
2022/10/03 09:29:57;;;;;;;;;;;;;;;;;;4995592;28;20276;-53
2022/10/03 09:32:22;;;;;;;;;;;;;;;;;;4996496;28;19967;-53
2022/10/03 09:34:48;;;;;;;;;;;;;;;;;;5003531;28;20003;-54
2022/10/03 09:37:14;;;;;;;;;;;;;;;;;;4999682;28;19914;-54
2022/10/03 09:39:40;;;;;;;;;;;;;;;;;;4999956;28;22508;-54
2022/10/03 09:42:11;;;;;;;;;;;14.10;1.00;;;;;;5013117;28;20161;-54
2022/10/03 09:44:37;;;;;;;;;;;;;;;;;;5018271;28;20226;-54
2022/10/03 09:47:21;;;;;;;;;;;;;;;;;;5018228;28;20361;-54
2022/10/03 09:49:47;;;;;;;;;;;;;;;;;;5016853;28;19917;-55
2022/10/03 09:52:13;;;;;;;;;;;;;;;;;;5018881;28;19921;-54
2022/10/03 09:54:41;;;;;;;;;;;;;;;;;;5019390;28;19912;-54
2022/10/03 09:57:07;;;;;;;;;;;;;;;;;;5019612;28;19956;-54
2022/10/03 09:59:33;;;;;;;;;;;;;;;;;;5020084;28;19962;-54
2022/10/03 10:01:59;;;;;;;;;;;;;;;;;;5019063;28;20269;-54
2022/10/03 10:04:25;;;;;;;;;;;;;;;;;;5027431;28;19913;-55
2022/10/03 10:06:51;;;;;;;;;;;;;;;;;;5011595;28;19909;-54
2022/10/03 10:09:17;;;;;;;;;;;;;;;;;;5024904;28;20051;-54
2022/10/03 10:11:43;;;;;;;;;;;;;;;;;;5017040;28;19924;-55
2022/10/03 10:14:19;;;;;;;;;;;14.70;1.00;;;;;;5009279;28;19928;-55
2022/10/03 10:16:45;;;;;;;;;;;14.90;1.00;;;;;;5013250;28;19967;-54
2022/10/03 10:19:11;;;;;;;;;;;;;;;;;;5023338;28;20671;-54
2022/10/03 10:21:37;;;;;;;;;;;;;;;;;;5018576;28;20487;-55
2022/10/03 10:24:03;;;;;;;;;;;;;;;;;;5018003;28;19917;-54
2022/10/03 10:26:28;;;;;;;;;;;;;;;;;;5016248;28;19921;-54
2022/10/03 10:28:54;;;;;;;;;;;;;;;;;;5016641;28;19925;-55
2022/10/03 10:31:20;;;;;;;;;;;;;;;;;;5020496;28;19949;-54
2022/10/03 10:33:46;;;;;;;;;;;;;;;;;;5016101;28;19916;-54
2022/10/03 10:36:45;;;;;;;;;;;14.90;1.00;;;;;;5029515;28;19913;-54
2022/10/03 10:39:12;;;;;;;;;;;;;;;;;;5028917;28;19952;-54
2022/10/03 10:41:38;;;;;;;;;;;;;;;;;;5026538;28;19927;-54
2022/10/03 10:44:03;;;;;;;;;;;;;;;;;;5024301;28;19920;-54
2022/10/03 10:46:38;;;;;;;;;;;14.70;99.90;;;;;;5023684;28;19917;-54
2022/10/03 10:49:03;;;;;;;;;;;;;;;;;;5029074;28;19921;-54
2022/10/03 10:51:29;;;;;;;;;;;;;;;;;;5015713;28;19979;-54
2022/10/03 10:53:55;;;;;;;;;;;;;;;;;;5021811;28;19917;-54
2022/10/03 10:56:21;;;;;;;;;;;;;;;;;;5011064;28;19923;-54
2022/10/03 10:58:47;;;;;;;;;;;;;;;;;;5010141;28;19913;-54
2022/10/03 11:01:13;;;;;;;;;;;;;;;;;;4997212;28;20850;-55
2022/10/03 11:03:39;;;;;;;;;;;;;;;;;;5001063;28;19913;-54
2022/10/03 11:06:05;;;;;;;;;;;;;;;;;;4997907;28;20162;-54
2022/10/03 11:08:39;;;;;;;;;;;15.10;1.00;;;;;;5002721;28;19917;-54
2022/10/03 11:11:05;;;;;;;;;;;;;;;;;;5008534;28;19913;-54
2022/10/03 11:13:31;;;;;;;;;;;;;;;;;;5002509;28;20929;-55
2022/10/03 11:16:15;;;;;;;;;;;15.20;1.00;;;;;;4996436;28;20088;-55
2022/10/03 11:18:41;;;;;;;;;;;;;;;;;;4999746;28;19913;-54
2022/10/03 11:21:07;;;;;;;;;;;;;;;;;;5002574;28;20320;-55
2022/10/03 11:23:50;;;;;;;;;;;15.00;1.00;;;;;;5006537;28;19913;-55
2022/10/03 11:26:17;;;;;;;;;;;;;;;;;;5009296;28;19966;-55
2022/10/03 11:28:57;;;;;;;;;;;15.50;1.00;;;;;;5008706;28;19978;-55
2022/10/03 11:31:32;;;;;;;;;;;15.40;1.00;;;;;;5003021;28;20217;-54
2022/10/03 11:34:06;;;;;;;;;;;15.60;99.90;;;;;;5001692;28;20130;-55
2022/10/03 11:36:32;;;;;;;;;;;;;;;;;;5008322;28;19921;-55
2022/10/03 11:38:59;;;;;;;;;;;;;;;;;;5005460;28;20684;-55
2022/10/03 11:41:24;;;;;;;;;;;;;;;;;;5007502;28;19922;-55
2022/10/03 11:44:03;;;;;;;;;;;15.70;1.00;;;;;;5005845;28;19987;-54
2022/10/03 11:46:49;;;;;;;;;;;15.80;1.00;;;;;;5001415;28;19924;-55
2022/10/03 11:49:17;;;;;;;;;;;15.80;1.00;;;;;;5014763;28;20271;-55
2022/10/03 11:51:43;;;;;;;;;;;;;;;;;;4998701;28;19916;-54
2022/10/03 11:54:09;;;;;;;;;;;;;;;;;;5001036;28;19964;-54
2022/10/03 11:56:35;;;;;;;;;;;;;;;;;;5002590;28;20277;-54
2022/10/03 11:59:06;;;;;;;;;;;15.90;99.90;;;;;;5006957;28;19921;-55
2022/10/03 12:01:32;;;;;;;;;;;;;;;;;;5009547;28;20001;-55
2022/10/03 12:03:58;;;;;;;;;;;;;;;;;;5003351;28;19921;-54
2022/10/03 12:09:16;;;;;;;;;;;16.70;99.90;;;;;;5027151;28;20364;-54
2022/10/03 12:11:42;;;;;;;;;;;;;;;;;;5026388;28;20203;-54
2022/10/03 12:14:07;;;;;;;;;;;;;;;;;;5023882;28;19923;-54
2022/10/03 12:16:52;;;;;;;;;;;16.60;1.00;;;;;;5025784;28;19913;-54
2022/10/03 12:19:19;;;;;;;;;;;;;;;;;;5020589;28;19929;-54
2022/10/03 12:21:45;;;;;;;;;;;;;;;;;;5020373;28;19912;-54
2022/10/03 12:24:11;;;;;;;;;;;;;;;;;;5020245;28;19955;-53
2022/10/03 12:26:37;;;;;;;;;;;;;;;;;;5023301;28;20011;-53
2022/10/03 12:29:07;;;;;;;;;;;;;;;;;;5017061;28;20168;-53
2022/10/03 12:31:34;;;;;;;;;;;;;;;;;;5019812;28;19916;-54
2022/10/03 12:34:01;;;;;;;;;;;;;;;;;;5003597;28;19920;-54
2022/10/03 12:36:30;;;;;;;;;;;18.10;99.90;;;;;;5016238;28;20111;-54
2022/10/03 12:39:20;;;;;;;429.67;211.43;;;18.10;1.00;;;;;;5016572;28;20430;-54
2022/10/03 12:42:07;;;;;;;388.80;195.90;;;17.90;1.00;;;;;;5018939;28;20223;-54
2022/10/03 12:44:36;;;;;;;468.10;227.47;;;18.00;1.00;;;;;;5013422;28;20809;-54
2022/10/03 12:47:26;;;;;;;412.20;204.60;;;17.60;99.20;;;;;;5019271;28;20310;-54
2022/10/03 12:49:51;;;;;;;423.53;209.03;;;;;;;;;;5020844;28;20227;-54
2022/10/03 12:52:23;;;;;;;408.03;202.50;;;17.30;87.00;;;;;;5022269;28;20212;-54
2022/10/03 12:55:06;;;;;;;419.03;204.53;;;17.10;99.90;;;;;;5027743;28;20568;-54
2022/10/03 12:57:51;;;;;;;462.73;226.23;;;17.10;1.00;;;;;;5016070;28;20241;-54
2022/10/03 13:00:35;;;;;;;381.43;186.23;;;17.30;1.00;;;;;;5001876;28;20239;-54
2022/10/03 13:03:13;;;;;;;404.27;201.00;;;17.50;1.00;;;;;;5020638;28;20644;-54
2022/10/03 13:06:08;;;;;;;469.07;226.60;;;17.30;1.00;;;;;;5013675;28;20227;-54
2022/10/03 13:09:02;;;;;;;392.77;194.00;;;17.30;1.00;;;;;;5025733;28;20227;-54
2022/10/03 13:11:37;;;;;;;399.33;192.60;;;17.20;1.00;;;;;;5024680;28;20207;-54
2022/10/03 13:14:21;;;;;;;405.67;197.40;;;17.10;1.00;;;;;;5016905;28;20273;-54
2022/10/03 13:16:59;;;;;;;457.30;222.77;;;16.90;99.90;;;;;;5019178;28;20212;-54
2022/10/03 13:19:42;;;;;;;372.67;184.77;;;16.90;1.00;;;;;;5025667;28;20289;-54
2022/10/03 13:22:26;;;;;;;425.67;200.83;;;17.10;51.10;;;;;;5025319;28;20219;-54
2022/10/03 13:24:57;;;;;;;401.33;190.37;;;16.90;99.90;;;;;;5024577;28;20711;-54
2022/10/03 13:27:44;;;;;;;394.97;190.93;;;16.70;1.00;;;;;;5022444;28;20238;-54
2022/10/03 13:30:16;;;;;;;484.73;230.93;;;16.80;50.40;;;;;;5012375;28;20779;-54
2022/10/03 13:33:05;;;;;;;405.93;192.90;;;16.90;1.00;;;;;;5023248;28;20206;-54
2022/10/03 13:35:58;;;;;;;475.33;228.67;;;17.20;99.90;;;;;;5022302;28;20223;-54
2022/10/03 13:38:58;;;;;;;377.53;177.70;;;17.30;1.00;;;;;;5025048;28;20231;-54
2022/10/03 13:41:27;;;;;;;462.20;221.43;;;17.60;99.90;;;;;;5020332;28;20208;-55
2022/10/03 13:44:30;;;;;;;389.67;184.50;;;17.60;99.90;;;;;;5014415;28;20195;-55
2022/10/03 13:46:56;;;;;;;419.40;203.70;;;;;;;;;;5020117;28;20238;-54
2022/10/03 13:49:34;;;;;;;398.10;189.20;;;17.10;1.00;;;;;;5019179;28;20232;-54
2022/10/03 13:52:23;;;;;;;400.83;192.63;;;16.60;1.00;;;;;;5030249;28;20306;-54
2022/10/03 13:55:14;;;;;;;414.57;197.73;;;16.20;1.00;;;;;;5019538;28;20310;-54
2022/10/03 13:58:13;;;;;;;394.17;183.80;;;16.10;1.00;;;;;;5024687;28;20266;-54
2022/10/03 14:01:20;;;;;;;409.37;194.87;;;16.20;1.00;;;;;;5013626;28;20223;-54
2022/10/03 14:04:07;;;;;;;463.93;218.63;;;15.90;1.00;;;;;;5021768;28;20222;-54
2022/10/03 14:06:50;;;;;;;396.37;183.83;;;16.40;1.00;;;;;;5020508;28;20333;-54
2022/10/03 14:09:50;;;;;;;386.63;178.33;;;16.40;1.00;;;;;;5017565;28;20243;-54
2022/10/03 14:12:28;;;;;;;442.80;212.27;;;17.20;99.90;;;;;;5017665;28;20264;-54
2022/10/03 14:15:31;;;;;;;425.70;201.93;;;17.60;99.90;;;;;;5015058;28;20755;-54
2022/10/03 14:18:26;;;;;;;389.10;192.80;;;18.60;1.00;;;;;;5022927;28;20215;-54
2022/10/03 14:21:36;;;;;;;411.90;207.00;;;19.30;1.00;;;;;;5018078;28;21279;-54
2022/10/03 14:24:25;;;;;;;416.37;214.87;;;19.30;99.90;;;;;;5051223;28;20214;-54
2022/10/03 14:27:09;;;;;;;428.23;220.07;;;19.00;99.90;;;;;;5024015;28;20678;-54
2022/10/03 14:29:55;;;;;;;418.67;216.67;;;18.30;11.00;;;;;;5032736;28;20261;-53
2022/10/03 14:32:37;;;;;;;434.17;221.70;;;17.80;5.00;;;;;;5038544;28;20214;-54
2022/10/03 14:35:39;;;;;;;502.87;240.93;;;17.50;1.00;;;;;;5031572;28;20707;-53
2022/10/03 14:38:17;;;;;;;489.10;240.30;;;16.90;99.90;;;;;;5033287;28;20226;-54
2022/10/03 14:40:58;;;;;;;422.40;208.00;;;16.80;99.90;;;;;;5037721;28;20206;-53
2022/10/03 14:43:39;;;;;;;396.17;196.90;;;16.50;1.00;;;;;;5044731;28;20234;-53
2022/10/03 14:46:05;;;;;;;;;;;;;;;;;;5048153;28;20208;-53
2022/10/03 14:48:31;;;;;;;;;;;;;;;;;;5050820;28;20313;-53
2022/10/03 14:51:12;;;;;;;385.17;184.70;;;15.30;57.80;;;;;;5054347;28;20031;-53
2022/10/03 14:53:38;;;;;;;;;;;;;;;;;;5050269;28;20639;-53
2022/10/03 14:56:05;;;;;;;;;;;;;;;;;;5045339;28;20368;-53
2022/10/03 14:58:31;;;;;;;;;;;;;;;;;;5043394;28;20309;-53
2022/10/03 15:00:57;;;;;;;;;;;;;;;;;;5040657;28;19967;-53
2022/10/03 15:03:23;;;;;;;;;;;;;;;;;;5052817;28;19908;-53
2022/10/03 15:05:49;;;;;;;;;;;;;;;;;;5043441;28;19931;-53
2022/10/03 15:08:15;;;;;;;;;;;14.40;99.90;;;;;;5051982;28;20198;-53
2022/10/03 15:10:41;;;;;;;;;;;;;;;;;;5048479;28;20030;-53
2022/10/03 15:13:09;;;;;;;;;;;14.20;99.90;;;;;;5041910;28;19916;-53
2022/10/03 15:15:36;;;;;;;;;;;;;;;;;;5040780;28;19958;-53
2022/10/03 15:18:03;;;;;;;;;;;;;;;;;;5037918;28;19927;-54
2022/10/03 15:20:30;;;;;;;;;;;;;;;;;;5045408;28;20423;-53
2022/10/03 15:22:56;;;;;;;;;;;;;;;;;;5041985;28;19916;-53
2022/10/03 15:25:22;;;;;;;;;;;;;;;;;;5042313;28;19927;-53
2022/10/03 15:27:47;;;;;;;;;;;;;;;;;;5049280;28;19932;-53
2022/10/03 15:30:13;;;;;;;;;;;;;;;;;;5046978;28;20513;-53
2022/10/03 15:32:41;;;;;;;;;;;;;;;;;;5034347;28;19916;-53
2022/10/03 15:35:06;;;;;;;;;;;;;;;;;;5050252;28;19923;-53
2022/10/03 15:37:37;;;;;;;;;;;14.00;99.90;;;;;;5045028;28;19916;-54
2022/10/03 15:40:03;;;;;;;;;;;;;;;;;;5048039;28;19916;-54
2022/10/03 15:42:29;;;;;;;;;;;;;;;;;;5043313;28;20631;-54
2022/10/03 15:44:55;;;;;;;;;;;;;;;;;;5041939;28;19912;-53
2022/10/03 15:47:21;;;;;;;;;;;;;;;;;;5046445;28;19917;-53
2022/10/03 15:49:47;;;;;;;;;;;;;;;;;;5050251;28;19928;-54
2022/10/03 15:52:13;;;;;;;;;;;;;;;;;;5047456;28;19913;-53
2022/10/03 15:54:39;;;;;;;;;;;;;;;;;;5041260;28;19915;-53
2022/10/03 15:57:07;;;;;;;;;;;13.80;99.90;;;;;;5039201;28;19930;-53
2022/10/03 15:59:34;;;;;;;;;;;;;;;;;;5041977;28;20142;-53
2022/10/03 16:02:00;;;;;;;;;;;;;;;;;;5037951;28;19926;-54
2022/10/03 16:07:54;;;;;;;;;;;;;;;;;;5016708;27;19926;-53